Strona główna
METAR-TAF:

METAR-TAF

Lotnisko :

Meriden-Markham Municipal Airport

Meriden, Connecticut, Stany Zjednoczone

Szerokość geograficzna: 41-30-35N, Długość geograficzna: 072-49-40W, wysokość: 31 m

Aktualna obserwacja pogody

Raport powstał 53 minut temu, godzina 22:53 UTC
Wiatr 8 kt od zachodnio-północny zachód
Temperatura -2°C
Wilgotność 33%
Ciśnienie 1034 hPa
Widzialność: 16.1 km
bezchmurnie

METAR: KMMK 192253Z AUTO 29008KT 10SM CLR M02/M16 A3053 RMK AO2 SLP340 T10171156

czas: 18:46 (23:46 UTC)


TAF: brakujący

Obserwacja i prognoza pogody dla ponad 4000 lotnisk (raport METAR i TAF).

Dostępne stacje oznaczono żółtymi i czerwonymi punktami na mapie.

Najedź kursorem aby zobaczyć nazwę stacji.

Kliknij aby zobaczyć obserwacje i prognozy pogody.

Aby zmienić mapę: kliknij na zielony przycisk z czarnym krzyżykiem, aby powiększyć; na zielony przycisk z myślnikiem, aby pomniejszyć; na zielone strzałki, aby przejść do map sąsiednich.


METAR-TAF: